createdAt,value
2022-08-09T00:02:43.053Z,102763.81
2022-08-09T00:06:51.890Z,102764.16
2022-08-09T00:10:54.488Z,102770.88
2022-08-09T00:15:06.313Z,102762.41
2022-08-09T00:19:10.508Z,102762.72
2022-08-09T00:23:55.256Z,102750.56
2022-08-09T00:27:36.124Z,102751.75
2022-08-09T00:31:59.630Z,102746.66
2022-08-09T00:36:00.910Z,102745.13
2022-08-09T00:40:12.714Z,102754.38
2022-08-09T00:44:25.856Z,102746.63
2022-08-09T00:48:28.671Z,102760.44
2022-08-09T00:52:31.201Z,102757.19
2022-08-09T00:56:35.939Z,102752.13
2022-08-09T01:00:40.697Z,102753.41
2022-08-09T01:05:05.297Z,102759.13
2022-08-09T01:09:23.731Z,102759.44
2022-08-09T01:13:58.768Z,102761.47
2022-08-09T01:18:14.475Z,102762.63
2022-08-09T01:22:32.443Z,102767.78
2022-08-09T01:26:59.318Z,102756.47
2022-08-09T01:31:06.168Z,102748.69
2022-08-09T01:35:37.914Z,102759.94
2022-08-09T01:39:44.429Z,102761.97
2022-08-09T01:43:52.572Z,102754.34
2022-08-09T01:47:56.933Z,102750.78
2022-08-09T01:52:07.441Z,102749.94
2022-08-09T01:56:11.420Z,102744.72
2022-08-09T02:00:34.914Z,102743.88
2022-08-09T02:04:40.610Z,102754.81
2022-08-09T02:08:58.600Z,102756.84
2022-08-09T02:13:05.217Z,102764.06
2022-08-09T02:17:59.830Z,102769.63
2022-08-09T02:21:39.491Z,102772.63
2022-08-09T02:25:52.725Z,102766.56
2022-08-09T02:29:59.093Z,102751.34
2022-08-09T02:34:13.333Z,102758.06
2022-08-09T02:38:31.497Z,102755.38
2022-08-09T02:42:39.454Z,102752.00
2022-08-09T02:46:43.502Z,102750.13
2022-08-09T02:50:56.143Z,102744.22
2022-08-09T02:55:03.174Z,102738.13
2022-08-09T02:59:26.471Z,102730.34
2022-08-09T03:04:17.390Z,102734.75
2022-08-09T03:08:03.775Z,102734.88
2022-08-09T03:12:10.970Z,102740.44
2022-08-09T03:16:19.181Z,102738.03
2022-08-09T03:20:22.120Z,102734.69
2022-08-09T03:24:42.827Z,102736.66
2022-08-09T03:28:55.066Z,102735.13
2022-08-09T03:32:58.561Z,102734.28
2022-08-09T03:37:02.255Z,102752.47
2022-08-09T03:41:15.666Z,102754.44
2022-08-09T03:46:03.342Z,102753.78
2022-08-09T03:49:57.676Z,102743.13
2022-08-09T03:53:59.788Z,102756.78
2022-08-09T03:58:06.576Z,102762.47
2022-08-09T04:02:19.814Z,102757.25
2022-08-09T04:06:29.065Z,102764.78
2022-08-09T04:10:31.342Z,102778.38
2022-08-09T04:14:53.246Z,102783.22
2022-08-09T04:18:54.839Z,102783.41
2022-08-09T04:22:56.578Z,102779.84
2022-08-09T04:27:00.786Z,102779.84
2022-08-09T04:31:08.214Z,102781.84
2022-08-09T04:35:12.820Z,102784.41
2022-08-09T04:39:14.803Z,102796.03
2022-08-09T04:43:18.042Z,102797.41
2022-08-09T04:47:19.687Z,102796.81
2022-08-09T04:51:21.860Z,102795.66
2022-08-09T04:55:24.618Z,102792.47
2022-08-09T04:59:26.481Z,102794.75
2022-08-09T05:03:42.606Z,102797.97
2022-08-09T05:07:46.529Z,102795.66
2022-08-09T05:11:48.280Z,102803.44
2022-08-09T05:15:56.505Z,102809.22
2022-08-09T05:19:58.729Z,102797.13
2022-08-09T05:24:03.667Z,102801.06
2022-08-09T05:28:05.903Z,102798.25
2022-08-09T05:32:08.389Z,102805.44
2022-08-09T05:36:11.976Z,102816.28
2022-08-09T05:40:18.349Z,102819.75
2022-08-09T05:44:22.063Z,102818.28
2022-08-09T05:48:33.331Z,102816.81
2022-08-09T05:52:36.145Z,102822.75
2022-08-09T05:56:54.541Z,102832.91
2022-08-09T06:00:58.252Z,102826.91
2022-08-09T06:05:00.014Z,102835.69
2022-08-09T06:09:01.770Z,102839.59
2022-08-09T06:13:12.394Z,102833.59
2022-08-09T06:17:20.650Z,102838.31
2022-08-09T06:21:22.280Z,102844.78
2022-08-09T06:25:24.561Z,102846.16
2022-08-09T06:29:26.960Z,102847.38
2022-08-09T06:33:39.629Z,102850.28
2022-08-09T06:37:53.312Z,102867.56
2022-08-09T06:42:08.972Z,102860.34
2022-08-09T06:46:39.123Z,102861.72
2022-08-09T06:50:35.191Z,102869.34
2022-08-09T06:54:37.192Z,102870.56
2022-08-09T07:00:50.918Z,102876.31
2022-08-09T07:03:05.969Z,102873.22
2022-08-09T07:07:12.019Z,102874.25
2022-08-09T07:11:34.348Z,102871.38
2022-08-09T07:16:38.679Z,102880.34
2022-08-09T07:20:13.034Z,102885.44
2022-08-09T07:24:14.652Z,102880.75
2022-08-09T07:28:19.108Z,102876.69
2022-08-09T07:32:32.919Z,102866.22
2022-08-09T07:36:36.396Z,102863.84
2022-08-09T07:41:08.284Z,102868.28
2022-08-09T07:45:06.556Z,102870.97
2022-08-09T07:49:21.961Z,102866.41
2022-08-09T07:54:05.720Z,102869.97
2022-08-09T07:57:48.994Z,102866.25
2022-08-09T08:01:53.029Z,102870.47
2022-08-09T08:05:57.848Z,102871.97
2022-08-09T08:10:08.516Z,102882.09
2022-08-09T08:14:12.267Z,102882.97
2022-08-09T08:18:14.411Z,102889.53
2022-08-09T08:22:16.317Z,102881.72
2022-08-09T08:26:18.466Z,102893.91
2022-08-09T08:30:28.871Z,102899.31
2022-08-09T08:34:30.642Z,102877.63
2022-08-09T08:38:35.180Z,102881.19
2022-08-09T08:42:37.930Z,102881.31
2022-08-09T08:46:59.996Z,102879.63
2022-08-09T08:51:02.831Z,102891.22
2022-08-09T08:55:05.901Z,102889.69
2022-08-09T08:59:18.977Z,102894.56
2022-08-09T09:03:25.296Z,102895.91
2022-08-09T09:07:36.857Z,102893.97
2022-08-09T09:11:41.332Z,102901.59
2022-08-09T09:15:43.107Z,102894.09
2022-08-09T09:19:52.226Z,102886.94
2022-08-09T09:23:57.534Z,102893.06
2022-08-09T09:28:05.906Z,102889.78
2022-08-09T09:32:15.440Z,102881.22
2022-08-09T09:36:20.813Z,102889.63
2022-08-09T09:40:41.882Z,102890.09
2022-08-09T09:44:56.954Z,102899.09
2022-08-09T09:49:06.515Z,102904.50
2022-08-09T09:53:14.268Z,102901.88
2022-08-09T09:58:01.601Z,102889.63
2022-08-09T10:01:47.333Z,102894.88
2022-08-09T10:06:03.522Z,102893.34
2022-08-09T10:10:07.116Z,102887.00
2022-08-09T10:14:30.579Z,102892.38
2022-08-09T10:18:35.379Z,102891.63
2022-08-09T10:22:39.217Z,102880.75
2022-08-09T10:26:41.458Z,102884.50
2022-08-09T10:35:05.676Z,102877.59
2022-08-09T10:39:14.170Z,102865.97
2022-08-09T10:43:20.567Z,102875.63
2022-08-09T10:48:25.916Z,102870.59
2022-08-09T10:52:00.190Z,102876.84
2022-08-09T10:56:17.650Z,102878.81
2022-08-09T11:00:36.652Z,102871.13
2022-08-09T11:04:38.522Z,102872.91
2022-08-09T11:09:15.503Z,102868.44
2022-08-09T11:13:50.763Z,102859.53
2022-08-09T11:17:42.054Z,102867.59
2022-08-09T11:22:05.114Z,102854.34
2022-08-09T11:26:32.225Z,102856.22
2022-08-09T11:30:38.006Z,102863.91
2022-08-09T11:34:44.074Z,102862.50
2022-08-09T11:39:00.470Z,102857.72
2022-08-09T11:43:02.949Z,102852.44
2022-08-09T11:47:04.713Z,102859.00
2022-08-09T11:52:53.989Z,102858.25
2022-08-09T11:55:53.484Z,102839.47
2022-08-09T12:00:12.864Z,102847.50
2022-08-09T12:04:23.726Z,102844.59
2022-08-09T12:08:34.253Z,102845.13
2022-08-09T12:12:53.282Z,102844.97
2022-08-09T12:16:56.427Z,102841.56
2022-08-09T12:21:02.852Z,102833.78
2022-08-09T12:25:12.596Z,102842.25
2022-08-09T12:29:33.381Z,102830.63
2022-08-09T12:33:58.447Z,102831.28
2022-08-09T12:38:17.094Z,102834.47
2022-08-09T12:42:44.082Z,102823.16
2022-08-09T12:46:50.119Z,102827.06
2022-08-09T12:50:52.090Z,102829.63
2022-08-09T12:56:11.386Z,102819.63
2022-08-09T12:59:21.055Z,102826.38
2022-08-09T13:03:56.698Z,102812.50
2022-08-09T13:08:21.149Z,102814.88
2022-08-09T13:13:08.833Z,102819.97
2022-08-09T13:17:44.456Z,102801.59
2022-08-09T13:22:37.825Z,102805.22
2022-08-09T13:25:59.357Z,102808.81
2022-08-09T13:30:49.487Z,102804.41
2022-08-09T13:34:31.142Z,102797.13
2022-08-09T13:38:56.671Z,102788.28
2022-08-09T13:42:55.964Z,102779.19
2022-08-09T13:47:26.888Z,102783.84
2022-08-09T13:51:19.676Z,102775.97
2022-08-09T13:55:22.912Z,102782.09
2022-08-09T13:59:25.135Z,102776.72
2022-08-09T14:04:02.713Z,102769.81
2022-08-09T14:07:48.698Z,102771.75
2022-08-09T14:11:53.643Z,102772.81
2022-08-09T14:16:09.834Z,102782.03
2022-08-09T14:20:12.413Z,102771.69
2022-08-09T14:24:21.933Z,102769.44
2022-08-09T14:28:33.571Z,102767.78
2022-08-09T14:32:35.193Z,102765.91
2022-08-09T14:36:43.048Z,102764.41
2022-08-09T14:41:01.113Z,102771.97
2022-08-09T14:46:39.689Z,102761.91
2022-08-09T14:49:34.622Z,102758.13
2022-08-09T14:53:52.499Z,102753.53
2022-08-09T14:57:54.308Z,102756.44
2022-08-09T15:01:57.664Z,102747.22
2022-08-09T15:06:01.774Z,102754.75
2022-08-09T15:10:11.193Z,102745.53
2022-08-09T15:14:19.092Z,102756.47
2022-08-09T15:18:21.025Z,102760.63
2022-08-09T15:22:26.161Z,102751.81
2022-08-09T15:26:30.924Z,102750.75
2022-08-09T15:30:57.430Z,102756.88
2022-08-09T15:34:55.393Z,102755.19
2022-08-09T15:39:00.067Z,102748.47
2022-08-09T15:43:02.395Z,102748.91
2022-08-09T15:47:05.283Z,102748.47
2022-08-09T15:51:11.408Z,102736.31
2022-08-09T15:55:29.034Z,102730.22
2022-08-09T15:59:37.500Z,102732.31
2022-08-09T16:03:41.775Z,102724.53
2022-08-09T16:07:45.697Z,102723.28
2022-08-09T16:11:57.158Z,102719.50
2022-08-09T16:16:04.786Z,102732.31
2022-08-09T16:20:15.011Z,102713.63
2022-08-09T16:24:30.239Z,102718.03
2022-08-09T16:28:35.748Z,102718.66
2022-08-09T16:32:56.223Z,102732.94
2022-08-09T16:36:59.911Z,102719.53
2022-08-09T16:41:03.592Z,102723.09
2022-08-09T16:45:07.814Z,102715.75
2022-08-09T16:49:18.809Z,102718.25
2022-08-09T16:53:32.608Z,102718.25
2022-08-09T16:58:08.154Z,102714.47
2022-08-09T17:01:57.864Z,102712.34
2022-08-09T17:06:07.819Z,102727.06
2022-08-09T17:10:17.900Z,102704.59
2022-08-09T17:14:27.432Z,102700.63
2022-08-09T17:18:30.432Z,102719.09
2022-08-09T17:22:32.867Z,102721.19
2022-08-09T17:26:38.325Z,102715.72
2022-08-09T17:30:40.575Z,102720.56
2022-08-09T17:35:00.753Z,102726.84
2022-08-09T17:39:04.209Z,102715.28
2022-08-09T17:43:32.255Z,102719.00
2022-08-09T17:47:31.723Z,102724.03
2022-08-09T17:51:51.766Z,102720.59
2022-08-09T17:55:59.699Z,102715.56
2022-08-09T18:00:05.570Z,102725.59
2022-08-09T18:04:13.729Z,102719.03
2022-08-09T18:08:16.186Z,102722.59
2022-08-09T18:12:19.953Z,102729.91
2022-08-09T18:16:30.228Z,102720.59
2022-08-09T18:20:54.251Z,102713.22
2022-08-09T18:24:54.362Z,102710.88
2022-08-09T18:30:40.546Z,102714.63
2022-08-09T18:33:23.030Z,102709.72
2022-08-09T18:37:48.542Z,102721.81
2022-08-09T18:41:52.952Z,102717.16
2022-08-09T18:46:47.764Z,102715.44
2022-08-09T18:50:16.943Z,102714.75
2022-08-09T18:54:28.747Z,102713.63
2022-08-09T18:58:33.225Z,102714.38
2022-08-09T19:02:35.221Z,102711.81
2022-08-09T19:06:38.639Z,102724.28
2022-08-09T19:10:40.876Z,102722.72
2022-08-09T19:14:43.572Z,102714.41
2022-08-09T19:18:45.766Z,102731.91
2022-08-09T19:22:54.203Z,102736.44
2022-08-09T19:26:57.039Z,102730.06
2022-08-09T19:30:58.763Z,102747.13
2022-08-09T19:35:01.603Z,102736.84
2022-08-09T19:39:05.787Z,102748.63
2022-08-09T19:43:10.060Z,102756.50
2022-08-09T19:47:23.754Z,102762.72
2022-08-09T19:51:30.878Z,102762.41
2022-08-09T19:55:53.001Z,102760.47
2022-08-09T20:00:06.850Z,102771.44
2022-08-09T20:04:20.680Z,102768.63
2022-08-09T20:08:35.414Z,102772.75
2022-08-09T20:12:37.433Z,102778.06
2022-08-09T20:16:49.861Z,102767.94
2022-08-09T20:20:57.277Z,102770.38
2022-08-09T20:24:59.090Z,102771.78
2022-08-09T20:29:10.081Z,102756.06
2022-08-09T20:33:12.982Z,102764.72
2022-08-09T20:37:21.439Z,102771.88
2022-08-09T20:41:34.722Z,102757.41
2022-08-09T20:46:01.711Z,102767.09
2022-08-09T20:50:01.045Z,102762.22
2022-08-09T20:54:03.714Z,102762.09
2022-08-09T20:58:20.170Z,102761.00
2022-08-09T21:02:22.542Z,102761.34
2022-08-09T21:06:25.142Z,102771.88
2022-08-09T21:10:33.159Z,102756.34
2022-08-09T21:14:40.682Z,102755.03
2022-08-09T21:19:01.446Z,102759.13
2022-08-09T21:23:09.310Z,102768.63
2022-08-09T21:27:52.094Z,102751.03
2022-08-09T21:31:48.798Z,102755.31
2022-08-09T21:35:52.614Z,102755.88
2022-08-09T21:39:54.574Z,102752.81
2022-08-09T21:43:58.243Z,102751.50
2022-08-09T21:47:59.984Z,102746.78
2022-08-09T21:52:01.656Z,102737.47
2022-08-09T21:56:03.701Z,102747.63
2022-08-09T22:00:10.624Z,102752.41
2022-08-09T22:04:14.323Z,102747.53
2022-08-09T22:08:25.533Z,102743.50
2022-08-09T22:12:30.613Z,102751.63
2022-08-09T22:16:37.171Z,102758.63
2022-08-09T22:20:40.025Z,102753.56
2022-08-09T22:24:53.542Z,102767.63
2022-08-09T22:29:06.810Z,102758.53
2022-08-09T22:33:09.878Z,102767.19
2022-08-09T22:37:13.599Z,102767.22
2022-08-09T22:41:15.516Z,102766.03
2022-08-09T22:48:12.785Z,102771.13
2022-08-09T22:49:40.393Z,102769.78
2022-08-09T22:53:58.422Z,102768.28
2022-08-09T22:58:04.957Z,102773.19
2022-08-09T23:02:06.637Z,102769.47
2022-08-09T23:06:08.442Z,102765.53
2022-08-09T23:10:15.892Z,102762.38
2022-08-09T23:14:17.763Z,102761.00
2022-08-09T23:18:41.025Z,102755.94
2022-08-09T23:22:42.686Z,102756.44
2022-08-09T23:26:44.286Z,102747.16
2022-08-09T23:30:51.402Z,102753.09
2022-08-09T23:34:53.803Z,102746.47
2022-08-09T23:38:55.707Z,102753.25
2022-08-09T23:42:57.389Z,102737.53
2022-08-09T23:46:59.090Z,102741.59
2022-08-09T23:51:00.751Z,102739.38
2022-08-09T23:55:02.358Z,102738.91
2022-08-09T23:59:05.833Z,102740.91
